createdAt,value
2018-02-20T00:01:45.479Z,86.69
2018-02-20T00:04:13.111Z,86.65
2018-02-20T00:06:40.845Z,86.72
2018-02-20T00:09:08.818Z,86.81
2018-02-20T00:11:36.454Z,86.90
2018-02-20T00:14:04.202Z,86.98
2018-02-20T00:16:31.796Z,86.98
2018-02-20T00:18:59.435Z,86.93
2018-02-20T00:21:27.108Z,86.83
2018-02-20T00:23:54.759Z,86.67
2018-02-20T00:26:22.372Z,86.61
2018-02-20T00:28:49.994Z,86.58
2018-02-20T00:31:17.620Z,86.56
2018-02-20T00:33:45.255Z,86.50
2018-02-20T00:36:12.847Z,86.43
2018-02-20T00:38:40.466Z,86.45
2018-02-20T00:41:08.130Z,86.61
2018-02-20T00:43:35.758Z,86.77
2018-02-20T00:46:03.613Z,86.93
2018-02-20T00:48:31.277Z,87.07
2018-02-20T00:50:58.881Z,87.10
2018-02-20T00:53:26.509Z,87.04
2018-02-20T00:55:54.160Z,86.92
2018-02-20T00:58:21.866Z,86.77
2018-02-20T01:00:49.463Z,86.63
2018-02-20T01:03:17.063Z,86.54
2018-02-20T01:05:44.706Z,86.53
2018-02-20T01:08:12.322Z,86.48
2018-02-20T01:10:40.004Z,86.40
2018-02-20T01:13:07.622Z,86.56
2018-02-20T01:15:35.251Z,86.73
2018-02-20T01:18:02.927Z,86.86
2018-02-20T01:20:30.566Z,86.89
2018-02-20T01:22:58.197Z,86.80
2018-02-20T01:25:25.867Z,86.72
2018-02-20T01:27:53.813Z,86.74
2018-02-20T01:30:21.416Z,86.83
2018-02-20T01:32:49.089Z,86.94
2018-02-20T01:35:17.007Z,86.98
2018-02-20T01:37:44.651Z,87.04
2018-02-20T01:40:12.336Z,87.03
2018-02-20T01:42:40.298Z,87.10
2018-02-20T01:45:07.889Z,87.10
2018-02-20T01:47:35.607Z,87.08
2018-02-20T01:50:03.203Z,87.13
2018-02-20T01:52:30.868Z,87.19
2018-02-20T01:54:58.490Z,87.23
2018-02-20T01:57:26.119Z,87.26
2018-02-20T01:59:53.785Z,87.25
2018-02-20T02:02:21.385Z,87.28
2018-02-20T02:04:49.057Z,87.30
2018-02-20T02:07:16.915Z,87.24
2018-02-20T02:09:44.540Z,87.08
2018-02-20T02:12:12.177Z,86.98
2018-02-20T02:14:40.119Z,86.96
2018-02-20T02:17:07.795Z,86.93
2018-02-20T02:19:35.750Z,87.01
2018-02-20T02:22:03.449Z,87.15
2018-02-20T02:24:31.064Z,87.25
2018-02-20T02:26:58.700Z,87.28
2018-02-20T02:29:26.698Z,87.41
2018-02-20T02:31:54.344Z,87.71
2018-02-20T02:34:21.966Z,88.06
2018-02-20T02:36:49.565Z,88.24
2018-02-20T02:39:17.218Z,88.45
2018-02-20T02:41:44.864Z,88.51
2018-02-20T02:44:12.564Z,88.76
2018-02-20T02:46:40.191Z,89.51
2018-02-20T02:49:07.872Z,89.66
2018-02-20T02:51:35.725Z,89.71
2018-02-20T02:54:03.446Z,89.96
2018-02-20T02:56:31.101Z,90.01
2018-02-20T02:58:58.783Z,90.01
2018-02-20T03:01:26.421Z,90.07
2018-02-20T03:03:54.108Z,90.33
2018-02-20T03:06:21.695Z,90.43
2018-02-20T03:08:49.724Z,90.53
2018-02-20T03:11:17.378Z,90.69
2018-02-20T03:13:45.049Z,90.84
2018-02-20T03:16:12.677Z,90.88
2018-02-20T03:18:40.379Z,90.87
2018-02-20T03:21:08.094Z,90.80
2018-02-20T03:23:35.740Z,90.70
2018-02-20T03:26:03.436Z,90.52
2018-02-20T03:28:31.090Z,90.45
2018-02-20T03:30:58.693Z,90.38
2018-02-20T03:33:26.362Z,90.32
2018-02-20T03:35:54.040Z,90.26
2018-02-20T03:38:22.005Z,90.18
2018-02-20T03:40:49.679Z,90.13
2018-02-20T03:43:17.493Z,90.11
2018-02-20T03:45:45.196Z,90.10
2018-02-20T03:48:12.868Z,90.15
2018-02-20T03:50:40.513Z,90.22
2018-02-20T03:53:08.342Z,90.26
2018-02-20T03:58:49.609Z,90.21
2018-02-20T04:01:17.301Z,90.11
2018-02-20T04:03:44.942Z,90.03
2018-02-20T04:06:12.565Z,89.91
2018-02-20T04:08:40.624Z,89.82
2018-02-20T04:11:08.345Z,89.79
2018-02-20T04:13:36.055Z,89.75
2018-02-20T04:16:04.017Z,89.72
2018-02-20T04:18:31.700Z,89.73
2018-02-20T04:20:59.328Z,89.76
2018-02-20T04:23:27.156Z,89.72
2018-02-20T04:25:54.780Z,89.75
2018-02-20T04:28:22.445Z,89.80
2018-02-20T04:30:50.263Z,89.82
2018-02-20T04:33:17.945Z,89.82
2018-02-20T04:35:45.843Z,89.79
2018-02-20T04:38:13.508Z,89.70
2018-02-20T04:40:41.123Z,89.60
2018-02-20T04:43:08.838Z,89.51
2018-02-20T04:45:36.741Z,89.38
2018-02-20T04:48:04.402Z,89.23
2018-02-20T04:50:32.221Z,89.10
2018-02-20T04:52:59.944Z,89.04
2018-02-20T04:55:28.113Z,88.99
2018-02-20T04:57:55.747Z,88.90
2018-02-20T05:00:23.377Z,88.76
2018-02-20T05:02:51.061Z,88.65
2018-02-20T05:05:18.687Z,88.57
2018-02-20T05:07:46.292Z,88.48
2018-02-20T05:10:13.946Z,88.42
2018-02-20T05:12:41.567Z,88.37
2018-02-20T05:15:09.617Z,88.29
2018-02-20T05:17:37.588Z,88.13
2018-02-20T05:20:05.736Z,87.99
2018-02-20T05:22:34.058Z,87.85
2018-02-20T05:25:02.199Z,87.72
2018-02-20T05:27:29.888Z,87.63
2018-02-20T05:29:57.523Z,87.52
2018-02-20T05:32:25.185Z,87.44
2018-02-20T05:34:58.469Z,87.36
2018-02-20T05:37:26.139Z,87.36
2018-02-20T05:39:54.169Z,87.41
2018-02-20T05:42:22.027Z,87.56
2018-02-20T05:44:49.767Z,87.78
2018-02-20T05:47:17.647Z,87.94
2018-02-20T05:49:45.632Z,88.17
2018-02-20T05:52:13.266Z,88.40
2018-02-20T05:54:40.983Z,88.54
2018-02-20T05:57:08.632Z,88.69
2018-02-20T05:59:36.573Z,88.79
2018-02-20T06:02:04.190Z,88.84
2018-02-20T06:04:31.832Z,88.83
2018-02-20T06:06:59.472Z,88.75
2018-02-20T06:09:27.135Z,88.74
2018-02-20T06:11:54.806Z,88.75
2018-02-20T06:14:22.427Z,88.80
2018-02-20T06:16:50.048Z,88.88
2018-02-20T06:19:17.636Z,88.95
2018-02-20T06:21:45.314Z,88.94
2018-02-20T06:24:12.919Z,88.81
2018-02-20T06:26:40.559Z,88.74
2018-02-20T06:29:08.172Z,88.69
2018-02-20T06:31:35.782Z,88.69
2018-02-20T06:34:03.416Z,88.71
2018-02-20T06:36:31.044Z,88.76
2018-02-20T06:38:58.707Z,88.81
2018-02-20T06:41:26.341Z,88.88
2018-02-20T06:43:53.965Z,88.95
2018-02-20T06:46:21.675Z,89.04
2018-02-20T06:48:49.472Z,89.07
2018-02-20T06:51:17.110Z,89.09
2018-02-20T06:53:44.768Z,89.05
2018-02-20T06:56:12.411Z,88.93
2018-02-20T06:58:40.321Z,88.75
2018-02-20T07:01:08.074Z,88.58
2018-02-20T07:03:35.748Z,88.54
2018-02-20T07:06:03.395Z,88.51
2018-02-20T07:08:31.086Z,88.54
2018-02-20T07:10:58.715Z,88.66
2018-02-20T07:13:26.326Z,88.79
2018-02-20T07:15:53.974Z,89.10
2018-02-20T07:18:21.677Z,89.33
2018-02-20T07:20:49.382Z,89.73
2018-02-20T07:23:17.007Z,90.27
2018-02-20T07:26:08.606Z,90.47
2018-02-20T07:28:36.246Z,90.50
2018-02-20T07:31:03.915Z,90.63
2018-02-20T07:33:31.549Z,90.86
2018-02-20T07:35:59.161Z,91.09
2018-02-20T07:38:26.816Z,91.22
2018-02-20T07:40:54.564Z,91.36
2018-02-20T07:43:22.246Z,91.58
2018-02-20T07:45:49.931Z,92.03
2018-02-20T07:48:17.878Z,92.20
2018-02-20T07:50:45.491Z,92.95
2018-02-20T07:53:13.202Z,93.45
2018-02-20T07:55:40.874Z,93.65
2018-02-20T07:58:08.612Z,93.70
2018-02-20T08:00:36.625Z,93.83
2018-02-20T08:03:04.295Z,93.96
2018-02-20T08:05:32.033Z,93.99
2018-02-20T08:07:59.728Z,93.98
2018-02-20T08:10:27.390Z,94.01
2018-02-20T08:12:55.117Z,94.03
2018-02-20T08:15:22.905Z,93.98
2018-02-20T08:17:50.594Z,93.95
2018-02-20T08:20:18.301Z,93.91
2018-02-20T08:22:57.898Z,93.89
2018-02-20T08:25:25.632Z,93.80
2018-02-20T08:27:53.277Z,93.72
2018-02-20T08:30:20.962Z,93.54
2018-02-20T08:32:49.037Z,93.27
2018-02-20T08:35:16.703Z,92.44
2018-02-20T08:37:44.454Z,91.82
2018-02-20T08:40:12.129Z,91.63
2018-02-20T08:42:39.816Z,91.04
2018-02-20T08:45:07.471Z,90.71
2018-02-20T08:47:35.139Z,90.25
2018-02-20T08:50:02.876Z,90.03
2018-02-20T08:52:30.524Z,89.79
2018-02-20T08:54:58.186Z,90.01
2018-02-20T08:57:25.877Z,89.98
2018-02-20T08:59:53.570Z,89.63
2018-02-20T09:02:22.113Z,88.98
2018-02-20T09:04:49.804Z,88.78
2018-02-20T09:07:17.742Z,88.56
2018-02-20T09:09:45.381Z,88.03
2018-02-20T09:12:13.051Z,87.86
2018-02-20T09:14:40.695Z,87.15
2018-02-20T09:17:08.336Z,87.16
2018-02-20T09:19:36.002Z,87.14
2018-02-20T09:22:03.631Z,87.13
2018-02-20T09:24:31.266Z,86.62
2018-02-20T09:26:59.234Z,86.35
2018-02-20T09:29:26.874Z,86.17
2018-02-20T09:31:54.495Z,86.15
2018-02-20T09:34:22.535Z,85.79
2018-02-20T09:36:50.495Z,84.89
2018-02-20T09:39:18.154Z,84.69
2018-02-20T09:41:45.889Z,84.58
2018-02-20T09:44:13.509Z,84.40
2018-02-20T09:46:41.585Z,84.43
2018-02-20T09:49:09.240Z,84.38
2018-02-20T09:51:36.836Z,84.25
2018-02-20T09:54:04.572Z,84.21
2018-02-20T09:56:32.188Z,84.14
2018-02-20T09:58:59.839Z,83.73
2018-02-20T10:01:27.495Z,83.71
2018-02-20T10:03:55.185Z,83.75
2018-02-20T10:06:23.141Z,83.65
2018-02-20T10:08:50.852Z,83.53
2018-02-20T10:11:18.524Z,83.27
2018-02-20T10:13:46.461Z,83.00
2018-02-20T10:16:14.531Z,82.55
2018-02-20T10:18:42.217Z,82.22
2018-02-20T10:21:09.924Z,81.74
2018-02-20T10:23:37.576Z,81.36
2018-02-20T10:26:05.276Z,81.21
2018-02-20T10:28:32.928Z,80.90
2018-02-20T10:31:00.616Z,78.99
2018-02-20T10:33:28.294Z,77.64
2018-02-20T10:35:56.004Z,77.88
2018-02-20T10:38:23.627Z,77.78
2018-02-20T10:40:51.291Z,77.95
2018-02-20T10:43:18.963Z,77.95
2018-02-20T10:45:46.657Z,76.84
2018-02-20T10:48:14.577Z,77.10
2018-02-20T10:50:42.247Z,77.21
2018-02-20T10:53:09.868Z,75.75
2018-02-20T10:55:37.578Z,74.73
2018-02-20T10:58:05.617Z,75.23
2018-02-20T11:00:33.278Z,75.29
2018-02-20T11:03:01.033Z,72.40
2018-02-20T11:05:29.438Z,73.24
2018-02-20T11:07:57.084Z,72.64
2018-02-20T11:10:24.820Z,72.66
2018-02-20T11:12:52.527Z,72.30
2018-02-20T11:15:20.152Z,71.09
2018-02-20T11:17:48.087Z,72.44
2018-02-20T11:20:15.757Z,72.37
2018-02-20T11:22:43.665Z,72.60
2018-02-20T11:25:11.379Z,72.17
2018-02-20T11:27:39.058Z,72.61
2018-02-20T11:30:06.752Z,72.28
2018-02-20T11:32:34.424Z,71.17
2018-02-20T11:35:03.290Z,69.97
2018-02-20T11:37:30.915Z,69.92
2018-02-20T11:39:58.823Z,70.78
2018-02-20T11:42:26.803Z,69.43
2018-02-20T11:44:54.393Z,70.14
2018-02-20T11:47:22.086Z,70.88
2018-02-20T11:49:50.110Z,70.93
2018-02-20T11:52:17.759Z,71.41
2018-02-20T11:54:45.475Z,71.29
2018-02-20T11:57:13.117Z,71.21
2018-02-20T11:59:40.865Z,70.72
2018-02-20T12:02:08.617Z,70.55
2018-02-20T12:04:36.312Z,70.64
2018-02-20T12:07:04.035Z,69.84
2018-02-20T12:09:31.743Z,70.19
2018-02-20T12:11:59.455Z,70.18
2018-02-20T12:14:27.186Z,70.14
2018-02-20T12:16:54.891Z,69.14
2018-02-20T12:19:22.586Z,69.49
2018-02-20T12:21:50.253Z,69.84
2018-02-20T12:24:17.926Z,69.86
2018-02-20T12:26:45.619Z,70.32
2018-02-20T12:29:13.333Z,69.99
2018-02-20T12:31:41.392Z,70.11
2018-02-20T12:34:09.058Z,70.13
2018-02-20T12:36:37.117Z,69.61
2018-02-20T12:39:04.881Z,68.86
2018-02-20T12:41:32.537Z,68.63
2018-02-20T12:44:00.261Z,68.91
2018-02-20T12:46:27.916Z,68.86
2018-02-20T12:48:55.945Z,68.73
2018-02-20T12:51:23.667Z,68.85
2018-02-20T12:53:52.499Z,69.04
2018-02-20T12:56:20.207Z,69.40
2018-02-20T12:58:47.938Z,68.19
2018-02-20T13:01:15.580Z,67.38
2018-02-20T13:03:43.257Z,67.46
2018-02-20T13:06:10.893Z,67.67
2018-02-20T13:08:38.542Z,68.27
2018-02-20T13:11:06.641Z,67.36
2018-02-20T13:13:34.311Z,67.49
2018-02-20T13:16:02.288Z,68.56
2018-02-20T13:18:30.035Z,68.91
2018-02-20T13:20:57.713Z,68.80
2018-02-20T13:23:25.771Z,68.78
2018-02-20T13:25:53.440Z,68.57
2018-02-20T13:28:21.115Z,68.98
2018-02-20T13:30:48.766Z,69.53
2018-02-20T13:33:16.461Z,67.91
2018-02-20T13:35:44.289Z,68.51
2018-02-20T13:38:11.959Z,68.15
2018-02-20T13:40:39.665Z,68.19
2018-02-20T13:43:07.395Z,68.08
2018-02-20T13:45:35.057Z,68.35
2018-02-20T13:48:02.817Z,68.52
2018-02-20T13:50:30.899Z,68.55
2018-02-20T13:52:58.653Z,68.33
2018-02-20T13:55:26.350Z,67.89
2018-02-20T13:57:54.390Z,67.91
2018-02-20T14:00:22.178Z,68.30
2018-02-20T14:02:49.821Z,68.78
2018-02-20T14:05:17.591Z,67.08
2018-02-20T14:07:45.270Z,66.87
2018-02-20T14:10:13.021Z,66.83
2018-02-20T14:12:40.743Z,66.95
2018-02-20T14:15:08.393Z,65.77
2018-02-20T14:17:36.035Z,65.56
2018-02-20T14:20:03.770Z,64.97
2018-02-20T14:22:31.480Z,65.38
2018-02-20T14:24:59.306Z,64.02
2018-02-20T14:27:27.060Z,64.21
2018-02-20T14:29:54.787Z,63.06
2018-02-20T14:32:22.492Z,62.51
2018-02-20T14:34:50.271Z,62.11
2018-02-20T14:37:18.249Z,61.13
2018-02-20T14:39:45.925Z,59.04
2018-02-20T14:42:13.759Z,58.07
2018-02-20T14:44:41.432Z,56.15
2018-02-20T14:47:09.096Z,55.18
2018-02-20T14:49:37.844Z,55.69
2018-02-20T14:52:05.568Z,55.12
2018-02-20T14:54:33.334Z,55.01
2018-02-20T14:57:01.159Z,56.39
2018-02-20T14:59:28.850Z,56.61
2018-02-20T15:01:56.889Z,56.27
2018-02-20T15:04:24.637Z,56.90
2018-02-20T15:06:52.727Z,57.64
2018-02-20T15:09:20.686Z,57.47
2018-02-20T15:11:48.769Z,58.28
2018-02-20T15:14:16.456Z,59.16
2018-02-20T15:16:44.185Z,59.49
2018-02-20T15:19:11.878Z,59.78
2018-02-20T15:21:39.757Z,59.98
2018-02-20T15:24:07.439Z,60.45
2018-02-20T15:26:35.441Z,60.67
2018-02-20T15:29:03.123Z,60.76
2018-02-20T15:31:30.870Z,60.76
2018-02-20T15:33:58.496Z,61.48
2018-02-20T15:36:26.330Z,61.86
2018-02-20T15:38:54.032Z,61.87
2018-02-20T15:41:21.807Z,62.06
2018-02-20T15:43:49.543Z,62.52
2018-02-20T15:46:17.264Z,62.37
2018-02-20T15:48:44.997Z,62.51
2018-02-20T15:51:12.719Z,62.91
2018-02-20T15:53:40.417Z,62.61
2018-02-20T15:56:08.075Z,63.03
2018-02-20T15:58:35.728Z,63.31
2018-02-20T16:01:03.415Z,63.29
2018-02-20T16:03:31.161Z,62.92
2018-02-20T16:05:58.869Z,63.32
2018-02-20T16:08:26.721Z,63.86
2018-02-20T16:10:54.397Z,63.67
2018-02-20T16:13:22.026Z,63.24
2018-02-20T16:15:54.012Z,62.99
2018-02-20T16:18:21.666Z,62.71
2018-02-20T16:20:49.295Z,62.81
2018-02-20T16:23:17.321Z,62.88
2018-02-20T16:25:44.980Z,63.26
2018-02-20T16:28:12.628Z,63.56
2018-02-20T16:30:40.337Z,63.75
2018-02-20T16:33:07.973Z,63.56
2018-02-20T16:35:35.647Z,63.81
2018-02-20T16:38:03.320Z,63.76
2018-02-20T16:40:30.952Z,64.02
2018-02-20T16:42:58.556Z,64.02
2018-02-20T16:45:26.231Z,64.25
2018-02-20T16:47:54.130Z,64.23
2018-02-20T16:50:21.770Z,64.47
2018-02-20T16:52:49.461Z,64.69
2018-02-20T16:55:17.120Z,64.90
2018-02-20T16:57:44.772Z,65.06
2018-02-20T17:00:12.859Z,65.20
2018-02-20T17:02:40.501Z,65.34
2018-02-20T17:05:08.169Z,65.51
2018-02-20T17:07:35.786Z,65.68
2018-02-20T17:10:03.454Z,65.87
2018-02-20T17:12:31.136Z,66.11
2018-02-20T17:14:59.140Z,66.32
2018-02-20T17:17:27.006Z,66.57
2018-02-20T17:19:54.684Z,66.67
2018-02-20T17:22:22.332Z,66.98
2018-02-20T17:24:50.110Z,67.09
2018-02-20T17:27:17.727Z,67.15
2018-02-20T17:29:45.637Z,67.19
2018-02-20T17:32:13.348Z,67.23
2018-02-20T17:34:41.102Z,67.30
2018-02-20T17:37:08.791Z,67.45
2018-02-20T17:39:36.668Z,67.61
2018-02-20T17:42:04.399Z,67.79
2018-02-20T17:44:32.065Z,67.87
2018-02-20T17:46:59.776Z,67.98
2018-02-20T17:49:27.449Z,68.11
2018-02-20T17:51:55.136Z,68.31
2018-02-20T17:54:22.786Z,68.57
2018-02-20T17:56:50.483Z,68.63
2018-02-20T17:59:18.160Z,68.71
2018-02-20T18:01:45.896Z,68.82
2018-02-20T18:04:13.608Z,68.97
2018-02-20T18:06:41.399Z,69.23
2018-02-20T18:09:09.121Z,69.38
2018-02-20T18:11:36.780Z,69.51
2018-02-20T18:14:04.607Z,69.57
2018-02-20T18:16:32.268Z,69.67
2018-02-20T18:18:59.973Z,69.74
2018-02-20T18:21:28.535Z,69.80
2018-02-20T18:23:56.211Z,69.86
2018-02-20T18:26:23.846Z,69.93
2018-02-20T18:28:51.566Z,70.05
2018-02-20T18:31:20.212Z,70.19
2018-02-20T18:33:47.865Z,70.33
2018-02-20T18:36:15.790Z,70.54
2018-02-20T18:38:43.512Z,70.72
2018-02-20T18:41:11.278Z,70.82
2018-02-20T18:43:38.960Z,70.91
2018-02-20T18:46:06.729Z,70.94
2018-02-20T18:48:34.375Z,71.16
2018-02-20T18:51:02.086Z,71.50
2018-02-20T18:53:29.786Z,71.66
2018-02-20T18:55:57.460Z,71.96
2018-02-20T18:58:25.089Z,71.98
2018-02-20T19:00:52.722Z,72.06
2018-02-20T19:03:20.371Z,72.16
2018-02-20T19:05:50.038Z,72.24
2018-02-20T19:08:18.218Z,72.38
2018-02-20T19:10:45.890Z,72.50
2018-02-20T19:13:13.611Z,72.66
2018-02-20T19:15:41.276Z,72.87
2018-02-20T19:18:08.916Z,73.07
2018-02-20T19:20:36.519Z,73.19
2018-02-20T19:23:04.157Z,73.26
2018-02-20T19:25:31.862Z,73.35
2018-02-20T19:27:59.888Z,73.73
2018-02-20T19:30:27.515Z,73.90
2018-02-20T19:32:55.203Z,74.22
2018-02-20T19:35:22.851Z,74.26
2018-02-20T19:37:50.487Z,74.59
2018-02-20T19:40:18.212Z,74.89
2018-02-20T19:42:45.875Z,74.85
2018-02-20T19:45:13.559Z,75.01
2018-02-20T19:47:41.269Z,75.30
2018-02-20T19:50:08.922Z,75.47
2018-02-20T19:52:36.570Z,75.73
2018-02-20T19:55:04.583Z,75.71
2018-02-20T19:57:32.215Z,75.84
2018-02-20T19:59:59.882Z,75.90
2018-02-20T20:02:27.513Z,75.90
2018-02-20T20:04:55.214Z,75.95
2018-02-20T20:07:22.858Z,75.94
2018-02-20T20:09:50.571Z,75.92
2018-02-20T20:12:18.445Z,76.06
2018-02-20T20:14:46.085Z,76.25
2018-02-20T20:17:13.920Z,76.43
2018-02-20T20:19:41.567Z,76.55
2018-02-20T20:22:09.194Z,76.65
2018-02-20T20:24:37.122Z,76.62
2018-02-20T20:27:04.813Z,76.68
2018-02-20T20:29:32.483Z,76.72
2018-02-20T20:32:00.143Z,77.03
2018-02-20T20:34:27.866Z,77.03
2018-02-20T20:36:55.757Z,77.12
2018-02-20T20:39:23.402Z,77.26
2018-02-20T20:41:51.092Z,77.69
2018-02-20T20:44:19.901Z,77.92
2018-02-20T20:46:48.552Z,78.04
2018-02-20T20:49:16.162Z,78.07
2018-02-20T20:51:43.832Z,78.06
2018-02-20T20:54:13.502Z,78.40
2018-02-20T20:56:41.184Z,78.47
2018-02-20T20:59:08.909Z,78.52
2018-02-20T21:01:36.584Z,78.66
2018-02-20T21:04:04.320Z,78.66
2018-02-20T21:06:31.990Z,78.82
2018-02-20T21:09:00.004Z,78.80
2018-02-20T21:11:27.689Z,78.70
2018-02-20T21:13:55.601Z,78.69
2018-02-20T21:16:23.272Z,78.61
2018-02-20T21:18:51.015Z,78.60
2018-02-20T21:21:18.827Z,78.72
2018-02-20T21:23:46.596Z,78.70
2018-02-20T21:26:14.289Z,78.94
2018-02-20T21:28:42.038Z,78.88
2018-02-20T21:31:09.775Z,78.95
2018-02-20T21:33:37.490Z,79.20
2018-02-20T21:36:05.225Z,79.16
2018-02-20T21:38:32.937Z,79.30
2018-02-20T21:41:00.782Z,79.22
2018-02-20T21:43:28.415Z,79.16
2018-02-20T21:45:56.055Z,79.03
2018-02-20T21:48:23.796Z,78.92
2018-02-20T21:50:51.462Z,78.90
2018-02-20T21:53:19.534Z,78.90
2018-02-20T21:55:47.314Z,79.02
2018-02-20T21:58:14.977Z,79.27
2018-02-20T22:00:42.679Z,79.33
2018-02-20T22:03:10.304Z,79.34
2018-02-20T22:05:53.263Z,79.38
2018-02-20T22:08:20.946Z,79.44
2018-02-20T22:10:48.596Z,79.74
2018-02-20T22:13:16.361Z,79.77
2018-02-20T22:15:44.056Z,79.89
2018-02-20T22:18:11.858Z,79.93
2018-02-20T22:20:39.833Z,80.06
2018-02-20T22:23:07.490Z,80.55
2018-02-20T22:25:35.174Z,81.00
2018-02-20T22:28:02.931Z,81.19
2018-02-20T22:30:31.056Z,81.29
2018-02-20T22:32:58.755Z,81.67
2018-02-20T22:35:26.400Z,81.46
2018-02-20T22:37:54.025Z,81.27
2018-02-20T22:40:21.733Z,81.31
2018-02-20T22:42:49.391Z,81.36
2018-02-20T22:45:17.118Z,81.92
2018-02-20T22:47:44.742Z,81.93
2018-02-20T22:50:12.526Z,82.08
2018-02-20T22:52:40.369Z,81.92
2018-02-20T22:55:07.998Z,81.86
2018-02-20T22:57:35.643Z,81.79
2018-02-20T23:00:03.430Z,81.81
2018-02-20T23:02:31.992Z,81.77
2018-02-20T23:04:59.680Z,81.80
2018-02-20T23:07:27.439Z,81.86
2018-02-20T23:09:55.108Z,81.81
2018-02-20T23:12:22.907Z,81.82
2018-02-20T23:14:50.602Z,81.83
2018-02-20T23:17:18.266Z,81.91
2018-02-20T23:19:45.938Z,82.19
2018-02-20T23:22:13.612Z,82.11
2018-02-20T23:24:41.281Z,82.15
2018-02-20T23:27:09.015Z,82.43
2018-02-20T23:29:36.629Z,82.35
2018-02-20T23:32:04.307Z,82.40
2018-02-20T23:34:32.000Z,82.66
2018-02-20T23:36:59.699Z,82.66
2018-02-20T23:39:27.404Z,82.79
2018-02-20T23:41:55.086Z,82.98
2018-02-20T23:44:22.720Z,83.03
2018-02-20T23:46:50.437Z,83.12
2018-02-20T23:49:18.139Z,83.18
2018-02-20T23:51:45.854Z,83.16
2018-02-20T23:54:21.168Z,83.21
2018-02-20T23:56:48.973Z,83.17
2018-02-20T23:59:16.682Z,83.12
